Time;durP1;ratioP1;P1;durP2;ratioP2;P2;SDS_P1;SDS_P2;PMS_P1;PMS_P2;Temp;Humidity;BMP_temperature;BMP_pressure;BME280_temperature;BME280_humidity;BME280_pressure;Samples;Min_cycle;Max_cycle;Signal;HPM_P1;HPM_P2
2023/07/24 00:01:53;;;;;;;17.70;2.85;;;;;;;;;;5023771;28;20407;-61
2023/07/24 00:04:21;;;;;;;21.75;3.13;;;;;;;;;;5011283;28;20387;-60
2023/07/24 00:06:48;;;;;;;15.40;2.58;;;;;;;;;;5010965;28;20030;-61
2023/07/24 00:09:15;;;;;;;15.25;2.83;;;;;;;;;;5010857;28;20030;-61
2023/07/24 00:11:42;;;;;;;15.73;2.50;;;;;;;;;;5010919;28;20498;-61
2023/07/24 00:14:10;;;;;;;17.15;3.40;;;;;;;;;;5011021;28;20754;-61
2023/07/24 00:16:37;;;;;;;16.00;2.90;;;;;;;;;;5010485;28;20045;-59
2023/07/24 00:19:04;;;;;;;17.13;3.75;;;;;;;;;;5010624;28;20502;-61
2023/07/24 00:21:31;;;;;;;17.85;3.33;;;;;;;;;;5012477;28;20030;-60
2023/07/24 00:23:58;;;;;;;19.90;3.88;;;;;;;;;;5015666;28;20030;-59
2023/07/24 00:26:25;;;;;;;24.27;3.90;;;;;;;;;;5014622;28;20026;-61
2023/07/24 00:28:52;;;;;;;20.10;3.20;;;;;;;;;;5012008;28;20045;-61
2023/07/24 00:31:19;;;;;;;20.25;3.13;;;;;;;;;;5015245;28;20088;-61
2023/07/24 00:33:46;;;;;;;19.95;3.55;;;;;;;;;;5015382;28;20025;-61
2023/07/24 00:36:13;;;;;;;19.35;3.35;;;;;;;;;;5015348;28;20061;-62
2023/07/24 00:38:40;;;;;;;22.33;3.45;;;;;;;;;;5015096;28;20038;-61
2023/07/24 00:41:07;;;;;;;28.25;4.10;;;;;;;;;;5015314;28;20076;-59
2023/07/24 00:43:34;;;;;;;24.02;4.35;;;;;;;;;;5015247;28;20684;-61
2023/07/24 00:46:01;;;;;;;23.50;4.80;;;;;;;;;;5015074;28;20026;-61
2023/07/24 00:48:28;;;;;;;28.95;4.80;;;;;;;;;;5014829;28;20113;-58
2023/07/24 00:50:56;;;;;;;26.83;4.72;;;;;;;;;;5015147;28;20033;-56
2023/07/24 00:53:23;;;;;;;20.73;4.80;;;;;;;;;;5012741;28;20022;-57
2023/07/24 00:55:50;;;;;;;18.10;4.50;;;;;;;;;;5014062;28;20503;-58
2023/07/24 00:58:17;;;;;;;22.58;4.93;;;;;;;;;;5012920;28;20550;-58
2023/07/24 01:00:45;;;;;;;27.23;4.97;;;;;;;;;;4996325;28;20103;-59
2023/07/24 01:03:12;;;;;;;26.75;5.60;;;;;;;;;;5013452;28;20038;-59
2023/07/24 01:05:40;;;;;;;33.38;5.05;;;;;;;;;;5029729;28;20372;-58
2023/07/24 01:08:08;;;;;;;31.27;5.20;;;;;;;;;;5013861;28;20091;-57
2023/07/24 01:10:35;;;;;;;24.20;5.00;;;;;;;;;;5013879;28;20030;-57
2023/07/24 01:13:16;;;;;;;20.50;4.80;;;;;;;;;;5014182;28;20058;-59
2023/07/24 01:15:46;;;;;;;27.92;5.47;;;;;;;;;;4991662;28;20042;-59
2023/07/24 01:18:14;;;;;;;20.52;4.63;;;;;;;;;;4996592;28;20670;-59
2023/07/24 01:20:43;;;;;;;22.20;4.63;;;;;;;;;;5013563;28;20076;-58
2023/07/24 01:23:20;;;;;;;22.77;4.68;;;;;;;;;;5013926;28;20040;-60
2023/07/24 01:26:00;;;;;;;19.48;4.10;;;;;;;;;;5014429;28;20034;-59
2023/07/24 01:28:27;;;;;;;20.65;4.55;;;;;;;;;;5013671;28;20029;-58
2023/07/24 01:30:54;;;;;;;27.63;4.53;;;;;;;;;;5014223;28;20105;-60
2023/07/24 01:33:22;;;;;;;23.55;4.40;;;;;;;;;;5013617;28;20061;-59
2023/07/24 01:35:50;;;;;;;19.38;4.25;;;;;;;;;;5016206;28;20029;-59
2023/07/24 01:38:17;;;;;;;20.92;4.57;;;;;;;;;;5011268;28;20369;-59
2023/07/24 01:40:45;;;;;;;21.40;4.40;;;;;;;;;;5013661;28;20029;-58
2023/07/24 01:43:12;;;;;;;17.50;3.75;;;;;;;;;;5013455;28;20295;-60
2023/07/24 01:45:39;;;;;;;24.77;4.10;;;;;;;;;;5013780;28;20026;-60
2023/07/24 01:48:06;;;;;;;19.05;3.40;;;;;;;;;;5013612;28;20022;-57
2023/07/24 01:50:33;;;;;;;21.63;3.90;;;;;;;;;;5013688;28;20026;-58
2023/07/24 01:53:00;;;;;;;17.17;4.00;;;;;;;;;;5013514;28;20041;-59
2023/07/24 01:55:27;;;;;;;21.27;3.67;;;;;;;;;;5013096;28;20022;-59
2023/07/24 01:57:54;;;;;;;15.20;4.13;;;;;;;;;;4991991;28;20392;-61
2023/07/24 02:00:21;;;;;;;20.50;4.47;;;;;;;;;;4993771;28;20054;-60
2023/07/24 02:02:48;;;;;;;20.40;4.38;;;;;;;;;;4994279;28;20507;-58
2023/07/24 02:05:15;;;;;;;16.35;4.00;;;;;;;;;;5005954;28;20021;-61
2023/07/24 02:07:42;;;;;;;15.73;3.88;;;;;;;;;;5013575;28;20479;-60
2023/07/24 02:10:09;;;;;;;15.48;3.60;;;;;;;;;;5013321;28;20021;-57
2023/07/24 02:12:36;;;;;;;20.70;4.28;;;;;;;;;;5013749;28;20022;-57
2023/07/24 02:15:03;;;;;;;15.45;3.80;;;;;;;;;;5013677;28;20059;-59
2023/07/24 02:17:30;;;;;;;16.00;3.45;;;;;;;;;;5013569;28;20103;-59
2023/07/24 02:19:58;;;;;;;14.43;3.70;;;;;;;;;;5013472;28;20045;-60
2023/07/24 02:22:25;;;;;;;12.70;3.72;;;;;;;;;;5013593;28;20032;-61
2023/07/24 02:24:52;;;;;;;12.60;3.33;;;;;;;;;;5013511;28;20149;-59
2023/07/24 02:27:26;;;;;;;17.25;3.35;;;;;;;;;;5013483;28;20054;-58
2023/07/24 02:29:54;;;;;;;16.02;3.83;;;;;;;;;;5013397;28;20096;-59
2023/07/24 02:32:22;;;;;;;16.73;3.70;;;;;;;;;;5013197;28;20033;-59
2023/07/24 02:34:52;;;;;;;12.02;3.30;;;;;;;;;;5013511;28;20022;-58
2023/07/24 02:37:19;;;;;;;12.93;3.35;;;;;;;;;;5013090;28;20428;-58
2023/07/24 02:39:46;;;;;;;11.13;3.13;;;;;;;;;;5013152;28;20025;-59
2023/07/24 02:42:13;;;;;;;7.68;2.78;;;;;;;;;;5013129;28;20029;-59
2023/07/24 02:44:40;;;;;;;9.57;2.90;;;;;;;;;;5012353;28;20114;-60
2023/07/24 02:47:08;;;;;;;14.30;3.75;;;;;;;;;;5013147;28;20033;-60
2023/07/24 02:49:35;;;;;;;17.92;3.70;;;;;;;;;;5012964;28;20475;-59
2023/07/24 02:52:02;;;;;;;12.55;3.25;;;;;;;;;;5012894;28;20364;-59
2023/07/24 02:54:29;;;;;;;14.85;3.45;;;;;;;;;;5012996;28;20022;-58
2023/07/24 02:56:56;;;;;;;13.27;3.10;;;;;;;;;;5013013;28;20053;-59
2023/07/24 02:59:23;;;;;;;13.63;3.25;;;;;;;;;;5012775;28;20037;-58
2023/07/24 03:01:50;;;;;;;12.88;2.90;;;;;;;;;;5012986;28;20034;-59
2023/07/24 03:04:17;;;;;;;8.68;2.67;;;;;;;;;;5012732;28;20116;-59
2023/07/24 03:06:44;;;;;;;8.43;2.70;;;;;;;;;;5012760;28;20021;-60
2023/07/24 03:09:11;;;;;;;8.98;2.70;;;;;;;;;;5012699;28;20560;-59
2023/07/24 03:11:38;;;;;;;10.25;2.70;;;;;;;;;;5012722;28;20078;-60
2023/07/24 03:14:05;;;;;;;9.63;2.55;;;;;;;;;;5012623;28;20033;-60
2023/07/24 03:16:32;;;;;;;11.57;3.13;;;;;;;;;;5012530;28;20030;-59
2023/07/24 03:18:59;;;;;;;13.70;2.92;;;;;;;;;;5012289;28;20038;-59
2023/07/24 03:21:26;;;;;;;14.38;3.13;;;;;;;;;;5012511;28;20036;-61
2023/07/24 03:23:53;;;;;;;9.00;2.50;;;;;;;;;;5012534;28;20029;-58
2023/07/24 03:26:20;;;;;;;10.52;2.70;;;;;;;;;;5012551;28;20025;-57
2023/07/24 03:28:47;;;;;;;6.95;2.53;;;;;;;;;;4994749;28;20113;-59
2023/07/24 03:31:14;;;;;;;7.45;2.60;;;;;;;;;;4994835;28;20757;-59
2023/07/24 03:33:41;;;;;;;8.60;2.55;;;;;;;;;;5012532;28;20018;-60
2023/07/24 03:36:08;;;;;;;8.88;2.60;;;;;;;;;;5012349;28;20025;-58
2023/07/24 03:38:35;;;;;;;11.18;2.70;;;;;;;;;;5012344;28;20030;-58
2023/07/24 03:41:02;;;;;;;7.30;2.38;;;;;;;;;;5012255;28;20093;-58
2023/07/24 03:43:29;;;;;;;7.90;2.55;;;;;;;;;;5012352;28;20025;-58
2023/07/24 03:45:56;;;;;;;6.65;2.58;;;;;;;;;;5012355;28;20427;-59
2023/07/24 03:48:23;;;;;;;7.28;2.63;;;;;;;;;;5012338;28;20045;-59
2023/07/24 03:50:51;;;;;;;6.63;2.38;;;;;;;;;;5012132;28;20033;-59
2023/07/24 03:53:18;;;;;;;7.60;2.50;;;;;;;;;;5012218;28;20026;-60
2023/07/24 03:55:45;;;;;;;7.80;2.50;;;;;;;;;;5012072;28;20021;-58
2023/07/24 03:58:12;;;;;;;7.45;2.08;;;;;;;;;;5012017;28;20069;-59
2023/07/24 04:00:39;;;;;;;7.78;2.33;;;;;;;;;;5011883;28;20045;-59
2023/07/24 04:03:06;;;;;;;8.02;2.20;;;;;;;;;;5011960;28;20134;-58
2023/07/24 04:05:35;;;;;;;5.72;2.00;;;;;;;;;;5012081;28;20434;-59
2023/07/24 04:08:02;;;;;;;8.50;2.20;;;;;;;;;;5012009;28;20088;-58
2023/07/24 04:10:30;;;;;;;7.13;2.38;;;;;;;;;;5011753;28;20545;-59
2023/07/24 04:12:58;;;;;;;8.93;2.38;;;;;;;;;;5011848;28;20117;-59
2023/07/24 04:15:24;;;;;;;7.70;2.13;;;;;;;;;;5012024;28;20100;-59
2023/07/24 04:17:52;;;;;;;8.02;2.35;;;;;;;;;;5011868;28;20034;-57
2023/07/24 04:20:19;;;;;;;8.88;2.45;;;;;;;;;;5011797;28;20036;-60
2023/07/24 04:22:46;;;;;;;4.93;1.92;;;;;;;;;;5011970;28;20018;-60
2023/07/24 04:25:13;;;;;;;7.70;2.28;;;;;;;;;;5011769;28;20460;-59
2023/07/24 04:27:40;;;;;;;7.95;2.05;;;;;;;;;;5011725;28;20372;-59
2023/07/24 04:30:07;;;;;;;6.38;1.80;;;;;;;;;;5011831;28;20550;-59
2023/07/24 04:32:34;;;;;;;7.40;2.30;;;;;;;;;;5011789;28;20030;-57
2023/07/24 04:35:01;;;;;;;6.35;1.85;;;;;;;;;;5011775;28;20429;-60
2023/07/24 04:37:28;;;;;;;9.93;2.22;;;;;;;;;;5011728;28;20068;-59
2023/07/24 04:39:55;;;;;;;6.88;1.95;;;;;;;;;;5011656;28;20125;-58
2023/07/24 04:42:22;;;;;;;7.82;2.28;;;;;;;;;;5011760;28;20026;-60
2023/07/24 04:44:50;;;;;;;6.63;2.00;;;;;;;;;;5011657;28;20495;-60
2023/07/24 04:47:17;;;;;;;6.68;1.98;;;;;;;;;;5011838;28;20045;-61
2023/07/24 04:49:44;;;;;;;6.40;2.35;;;;;;;;;;5011600;28;20104;-58
2023/07/24 04:52:11;;;;;;;5.40;1.95;;;;;;;;;;5011481;28;20022;-59
2023/07/24 04:54:38;;;;;;;4.80;1.98;;;;;;;;;;5011635;28;20515;-58
2023/07/24 04:57:05;;;;;;;8.07;2.35;;;;;;;;;;4993902;28;20660;-58
2023/07/24 04:59:32;;;;;;;8.55;2.05;;;;;;;;;;5011128;28;20034;-58
2023/07/24 05:01:59;;;;;;;5.03;1.55;;;;;;;;;;5011569;28;20096;-59
2023/07/24 05:04:26;;;;;;;6.20;1.70;;;;;;;;;;5011515;28;20521;-58
2023/07/24 05:06:53;;;;;;;2.53;1.42;;;;;;;;;;4994119;28;20026;-58
2023/07/24 05:09:20;;;;;;;4.70;1.60;;;;;;;;;;5015074;28;20025;-59
2023/07/24 05:11:47;;;;;;;5.30;1.90;;;;;;;;;;5015241;28;20022;-60
2023/07/24 05:14:14;;;;;;;6.53;1.90;;;;;;;;;;5015070;28;20022;-58
2023/07/24 05:16:41;;;;;;;3.58;1.63;;;;;;;;;;5015158;28;20789;-58
2023/07/24 05:19:09;;;;;;;3.55;1.50;;;;;;;;;;5014849;28;20033;-60
2023/07/24 05:21:36;;;;;;;3.60;1.50;;;;;;;;;;5014904;28;20030;-59
2023/07/24 05:24:02;;;;;;;8.50;1.73;;;;;;;;;;5014930;28;20025;-60
2023/07/24 05:26:29;;;;;;;5.53;1.70;;;;;;;;;;5014892;28;20026;-61
2023/07/24 05:28:56;;;;;;;5.72;1.73;;;;;;;;;;5014727;28;20076;-57
2023/07/24 05:31:23;;;;;;;6.20;1.80;;;;;;;;;;5014776;28;20022;-59
2023/07/24 05:33:50;;;;;;;6.80;1.95;;;;;;;;;;4997050;28;20029;-59
2023/07/24 05:36:17;;;;;;;5.50;1.73;;;;;;;;;;5014742;28;20021;-60
2023/07/24 05:38:44;;;;;;;5.25;1.42;;;;;;;;;;5014243;28;20037;-55
2023/07/24 05:41:11;;;;;;;4.43;1.52;;;;;;;;;;5014621;28;20033;-59
2023/07/24 05:43:38;;;;;;;3.63;1.48;;;;;;;;;;5014540;28;20022;-60
2023/07/24 05:46:05;;;;;;;4.43;1.70;;;;;;;;;;5014566;28;20100;-58
2023/07/24 05:48:32;;;;;;;3.50;1.20;;;;;;;;;;5014444;28;20034;-59
2023/07/24 05:50:59;;;;;;;3.78;1.30;;;;;;;;;;5014192;28;20065;-60
2023/07/24 05:53:26;;;;;;;9.32;1.88;;;;;;;;;;5014336;28;20049;-58
2023/07/24 05:56:00;;;;;;;4.50;1.35;;;;;;;;;;5014364;28;20026;-58
2023/07/24 05:58:27;;;;;;;4.57;1.40;;;;;;;;;;5014191;28;20105;-60
2023/07/24 06:00:55;;;;;;;5.40;1.20;;;;;;;;;;5012423;28;20061;-59
2023/07/24 06:03:22;;;;;;;4.40;1.35;;;;;;;;;;5014029;28;20431;-59
2023/07/24 06:05:54;;;;;;;3.33;1.35;;;;;;;;;;5014133;28;20026;-57
2023/07/24 06:08:21;;;;;;;2.50;1.33;;;;;;;;;;5014126;28;20426;-58
2023/07/24 06:10:49;;;;;;;4.07;1.48;;;;;;;;;;4996610;28;20026;-58
2023/07/24 06:13:17;;;;;;;3.53;1.33;;;;;;;;;;5013918;28;20040;-60
2023/07/24 06:15:44;;;;;;;2.47;1.17;;;;;;;;;;5013978;28;20022;-57
2023/07/24 06:18:11;;;;;;;3.22;1.20;;;;;;;;;;5013820;28;20400;-59
2023/07/24 06:20:38;;;;;;;3.63;1.27;;;;;;;;;;4996143;28;20080;-58
2023/07/24 06:23:05;;;;;;;3.00;1.17;;;;;;;;;;5013740;28;20033;-58
2023/07/24 06:25:32;;;;;;;4.15;1.30;;;;;;;;;;5013732;28;20472;-57
2023/07/24 06:27:59;;;;;;;2.28;1.10;;;;;;;;;;5013696;28;20037;-58
2023/07/24 06:30:26;;;;;;;3.75;1.45;;;;;;;;;;5013359;28;20030;-58
2023/07/24 06:32:53;;;;;;;3.67;1.38;;;;;;;;;;5013576;28;20029;-59
2023/07/24 06:35:20;;;;;;;2.90;1.25;;;;;;;;;;5013794;28;20061;-58
2023/07/24 06:37:47;;;;;;;3.15;1.20;;;;;;;;;;5013146;28;20036;-57
2023/07/24 06:40:14;;;;;;;4.07;1.20;;;;;;;;;;5013338;28;20509;-59
2023/07/24 06:42:41;;;;;;;3.30;1.27;;;;;;;;;;5013456;28;20484;-56
2023/07/24 06:45:09;;;;;;;3.10;0.90;;;;;;;;;;5013367;28;20026;-60
2023/07/24 06:47:36;;;;;;;4.60;1.30;;;;;;;;;;5013192;28;20061;-59
2023/07/24 06:50:04;;;;;;;2.65;1.10;;;;;;;;;;5013021;28;20021;-60
2023/07/24 06:52:32;;;;;;;3.88;1.10;;;;;;;;;;5013135;28;20061;-58
2023/07/24 06:55:00;;;;;;;2.33;0.90;;;;;;;;;;5013239;28;20014;-57
2023/07/24 06:57:27;;;;;;;2.58;0.90;;;;;;;;;;5013043;28;20445;-59
2023/07/24 06:59:54;;;;;;;2.35;0.95;;;;;;;;;;5012754;28;20046;-58
2023/07/24 07:02:20;;;;;;;2.33;1.20;;;;;;;;;;5012941;28;20022;-58
2023/07/24 07:04:47;;;;;;;2.22;1.00;;;;;;;;;;5013004;28;20513;-60
2023/07/24 07:07:14;;;;;;;3.20;1.17;;;;;;;;;;5012945;28;20029;-58
2023/07/24 07:09:41;;;;;;;2.53;0.90;;;;;;;;;;5012880;28;20076;-59
2023/07/24 07:12:09;;;;;;;2.13;0.90;;;;;;;;;;5012899;28;20478;-59
2023/07/24 07:14:36;;;;;;;2.05;1.00;;;;;;;;;;5012799;28;20384;-59
2023/07/24 07:17:03;;;;;;;2.03;0.80;;;;;;;;;;5012807;28;20636;-58
2023/07/24 07:19:30;;;;;;;1.70;0.85;;;;;;;;;;5012591;28;20109;-60
2023/07/24 07:21:57;;;;;;;2.63;1.10;;;;;;;;;;5012729;28;20033;-59
2023/07/24 07:24:24;;;;;;;3.08;0.90;;;;;;;;;;5012646;28;20037;-58
2023/07/24 07:26:51;;;;;;;2.58;1.23;;;;;;;;;;5012585;28;20582;-61
2023/07/24 07:29:18;;;;;;;2.85;1.10;;;;;;;;;;5012454;28;20030;-58
2023/07/24 07:31:45;;;;;;;2.88;0.90;;;;;;;;;;5012252;28;20447;-59
2023/07/24 07:34:12;;;;;;;1.50;0.70;;;;;;;;;;5012457;28;20030;-59
2023/07/24 07:36:39;;;;;;;2.08;0.95;;;;;;;;;;5012549;28;20526;-58
2023/07/24 07:39:06;;;;;;;3.42;1.25;;;;;;;;;;5012217;28;20026;-58
2023/07/24 07:41:33;;;;;;;3.20;1.10;;;;;;;;;;5012451;28;20096;-59
2023/07/24 07:44:00;;;;;;;1.27;0.70;;;;;;;;;;5012403;28;20026;-58
2023/07/24 07:46:27;;;;;;;1.80;0.90;;;;;;;;;;5012296;28;20026;-59
2023/07/24 07:48:54;;;;;;;1.70;0.77;;;;;;;;;;5012183;28;20036;-58
2023/07/24 07:51:21;;;;;;;1.77;0.90;;;;;;;;;;5012142;28;20021;-58
2023/07/24 07:53:48;;;;;;;1.70;0.85;;;;;;;;;;5012256;28;20108;-57
2023/07/24 07:56:15;;;;;;;2.50;0.75;;;;;;;;;;5012226;28;20742;-55
2023/07/24 07:58:42;;;;;;;3.15;0.90;;;;;;;;;;5012006;28;20037;-60
2023/07/24 08:01:09;;;;;;;2.90;1.02;;;;;;;;;;5011836;28;20046;-58
2023/07/24 08:03:36;;;;;;;2.15;0.90;;;;;;;;;;5012113;28;20026;-60
2023/07/24 08:06:03;;;;;;;1.15;0.60;;;;;;;;;;5011963;28;20029;-60
2023/07/24 08:08:30;;;;;;;1.45;0.70;;;;;;;;;;5012028;28;20400;-58
2023/07/24 08:10:57;;;;;;;2.63;0.70;;;;;;;;;;5012009;28;20416;-59
2023/07/24 08:13:24;;;;;;;2.15;0.90;;;;;;;;;;5012003;28;20018;-60
2023/07/24 08:15:51;;;;;;;2.00;1.02;;;;;;;;;;5011829;28;20029;-60
2023/07/24 08:18:18;;;;;;;2.67;0.80;;;;;;;;;;5011823;28;20030;-59
2023/07/24 08:20:45;;;;;;;2.42;0.70;;;;;;;;;;5011809;28;20025;-58
2023/07/24 08:23:12;;;;;;;1.92;0.60;;;;;;;;;;5011720;28;20392;-59
2023/07/24 08:25:39;;;;;;;1.10;0.70;;;;;;;;;;5011859;28;20522;-59
2023/07/24 08:28:06;;;;;;;1.55;0.75;;;;;;;;;;5011815;28;20396;-58
2023/07/24 08:30:34;;;;;;;1.38;0.80;;;;;;;;;;5011720;28;20026;-60
2023/07/24 08:33:01;;;;;;;1.67;0.90;;;;;;;;;;5011820;28;20022;-58
2023/07/24 08:35:28;;;;;;;2.15;0.60;;;;;;;;;;5011807;28;20022;-59
2023/07/24 08:37:55;;;;;;;2.65;0.75;;;;;;;;;;5011667;28;20062;-59
2023/07/24 08:40:22;;;;;;;1.98;0.82;;;;;;;;;;5011693;28;20037;-58
2023/07/24 08:42:52;;;;;;;5.68;0.68;;;;;;;;;;5013570;28;20025;-59
2023/07/24 08:45:20;;;;;;;2.60;0.80;;;;;;;;;;5015592;28;20391;-58
2023/07/24 08:47:47;;;;;;;1.27;0.68;;;;;;;;;;5015607;28;20106;-60
2023/07/24 08:50:15;;;;;;;1.77;0.70;;;;;;;;;;5015200;28;20030;-59
2023/07/24 08:52:43;;;;;;;2.47;0.80;;;;;;;;;;4997856;28;20034;-58
2023/07/24 08:55:10;;;;;;;2.40;0.63;;;;;;;;;;5015398;28;20049;-60
2023/07/24 08:57:37;;;;;;;1.42;0.63;;;;;;;;;;5015285;28;20026;-58
2023/07/24 09:00:05;;;;;;;2.28;0.80;;;;;;;;;;5015079;28;20072;-60
2023/07/24 09:02:33;;;;;;;1.45;0.70;;;;;;;;;;5015317;28;20034;-57
2023/07/24 09:05:00;;;;;;;2.03;0.70;;;;;;;;;;5015249;28;20017;-60
2023/07/24 09:07:27;;;;;;;1.70;0.90;;;;;;;;;;5015012;28;20446;-57
2023/07/24 09:09:54;;;;;;;2.53;0.68;;;;;;;;;;5015126;28;20071;-58
2023/07/24 09:12:23;;;;;;;4.00;0.70;;;;;;;;;;5014917;28;20495;-59
2023/07/24 09:15:02;;;;;;;1.55;0.65;;;;;;;;;;5014841;28;20117;-56
2023/07/24 09:17:29;;;;;;;1.33;0.70;;;;;;;;;;5014848;28;20033;-55
2023/07/24 09:20:00;;;;;;;1.70;0.73;;;;;;;;;;5014878;28;20026;-60
2023/07/24 09:22:27;;;;;;;2.13;0.60;;;;;;;;;;5013725;28;20034;-61
2023/07/24 09:24:54;;;;;;;2.78;0.70;;;;;;;;;;5014103;28;20041;-58
2023/07/24 09:27:22;;;;;;;2.25;0.60;;;;;;;;;;5014832;28;20096;-58
2023/07/24 09:29:49;;;;;;;2.25;0.80;;;;;;;;;;5014258;28;20037;-57
2023/07/24 09:32:21;;;;;;;2.05;0.70;;;;;;;;;;5013610;28;20163;-55
2023/07/24 09:34:48;;;;;;;3.00;0.85;;;;;;;;;;5014133;28;20042;-60
2023/07/24 09:37:33;;;;;;;2.40;0.80;;;;;;;;;;5013787;28;20057;-58
2023/07/24 09:40:00;;;;;;;2.30;0.80;;;;;;;;;;5011725;28;20034;-61
2023/07/24 09:42:34;;;;;;;3.67;0.88;;;;;;;;;;5013763;28;20030;-58
2023/07/24 09:45:01;;;;;;;5.60;0.90;;;;;;;;;;5014501;28;20026;-58
2023/07/24 09:47:28;;;;;;;5.38;1.00;;;;;;;;;;5014255;28;20022;-59
2023/07/24 09:49:56;;;;;;;3.15;0.80;;;;;;;;;;5014110;28;20034;-59
2023/07/24 09:52:24;;;;;;;4.15;1.15;;;;;;;;;;5014398;28;20038;-58
2023/07/24 09:55:05;;;;;;;2.60;0.80;;;;;;;;;;5013885;28;20038;-59
2023/07/24 09:57:33;;;;;;;5.03;0.80;;;;;;;;;;5014269;28;20022;-59
2023/07/24 10:00:00;;;;;;;1.55;0.70;;;;;;;;;;5013988;28;20133;-58
2023/07/24 10:02:28;;;;;;;2.97;0.80;;;;;;;;;;5014095;28;20092;-58
2023/07/24 10:04:56;;;;;;;5.80;1.33;;;;;;;;;;5014123;28;20072;-58
2023/07/24 10:07:24;;;;;;;4.15;1.08;;;;;;;;;;5014106;28;20064;-57
2023/07/24 10:09:51;;;;;;;3.00;1.00;;;;;;;;;;5013998;28;20084;-60
2023/07/24 10:12:19;;;;;;;3.55;0.88;;;;;;;;;;5014050;28;20022;-58
2023/07/24 10:14:49;;;;;;;4.75;0.82;;;;;;;;;;5014029;28;20014;-57
2023/07/24 10:17:25;;;;;;;2.53;0.63;;;;;;;;;;5013937;28;20050;-57
2023/07/24 10:19:52;;;;;;;3.63;0.95;;;;;;;;;;5013892;28;20508;-58
2023/07/24 10:22:19;;;;;;;2.05;0.70;;;;;;;;;;5013805;28;20053;-58
2023/07/24 10:24:47;;;;;;;5.40;1.25;;;;;;;;;;5013822;28;20022;-60
2023/07/24 10:27:14;;;;;;;2.03;0.60;;;;;;;;;;5013744;28;20033;-58
2023/07/24 10:29:41;;;;;;;1.98;0.80;;;;;;;;;;5013599;28;20510;-59
2023/07/24 10:32:20;;;;;;;4.50;0.80;;;;;;;;;;5013657;28;20026;-59
2023/07/24 10:34:56;;;;;;;2.40;0.60;;;;;;;;;;5013659;28;20612;-59
2023/07/24 10:37:32;;;;;;;4.03;0.80;;;;;;;;;;5013371;28;20026;-59
2023/07/24 10:39:59;;;;;;;4.97;0.85;;;;;;;;;;5013428;28;20029;-60
2023/07/24 10:42:26;;;;;;;4.20;0.98;;;;;;;;;;5013486;28;20026;-59
2023/07/24 10:45:08;;;;;;;1.52;0.60;;;;;;;;;;5013446;28;20037;-58
2023/07/24 10:47:35;;;;;;;2.67;0.63;;;;;;;;;;4995686;28;20412;-57
2023/07/24 10:50:03;;;;;;;1.80;0.70;;;;;;;;;;5013174;28;20392;-61
2023/07/24 10:52:34;;;;;;;4.68;0.85;;;;;;;;;;5013337;28;20025;-58
2023/07/24 10:55:02;;;;;;;3.90;0.93;;;;;;;;;;5013019;28;20061;-58
2023/07/24 10:57:30;;;;;;;2.83;0.75;;;;;;;;;;5012872;28;20381;-58
2023/07/24 10:59:57;;;;;;;3.92;0.80;;;;;;;;;;5012752;28;20586;-60
2023/07/24 11:02:24;;;;;;;5.35;1.00;;;;;;;;;;5012496;28;20499;-58
2023/07/24 11:04:51;;;;;;;3.15;0.80;;;;;;;;;;5011159;28;20030;-58
2023/07/24 11:07:18;;;;;;;3.97;0.70;;;;;;;;;;5012783;28;20034;-59
2023/07/24 11:09:45;;;;;;;5.68;0.93;;;;;;;;;;5012567;28;20492;-58
2023/07/24 11:12:13;;;;;;;8.57;0.90;;;;;;;;;;5005518;28;20080;-69
2023/07/24 11:14:50;;;;;;;4.50;0.90;;;;;;;;;;5007773;28;20024;-62
2023/07/24 11:17:18;;;;;;;4.68;0.95;;;;;;;;;;5009821;28;20029;-67
2023/07/24 11:19:45;;;;;;;8.40;1.00;;;;;;;;;;5009423;28;20115;-59
2023/07/24 11:22:12;;;;;;;8.35;0.98;;;;;;;;;;5011630;28;20059;-60
2023/07/24 11:24:46;;;;;;;5.53;1.05;;;;;;;;;;4997049;28;20376;-61
2023/07/24 11:27:18;;;;;;;10.75;0.93;;;;;;;;;;5012114;28;20034;-60
2023/07/24 11:29:49;;;;;;;4.90;0.77;;;;;;;;;;5007681;28;20600;-60
2023/07/24 11:32:22;;;;;;;4.22;1.00;;;;;;;;;;5011809;28;20160;-61
2023/07/24 11:34:50;;;;;;;7.13;1.02;;;;;;;;;;5003306;28;20109;-63
2023/07/24 11:37:18;;;;;;;7.97;1.00;;;;;;;;;;4992585;28;20037;-54
2023/07/24 11:40:09;;;;;;;6.80;1.30;;;;;;;;;;5011339;28;20068;-60
2023/07/24 11:42:40;;;;;;;2.35;0.80;;;;;;;;;;5008454;28;20103;-61
2023/07/24 11:45:11;;;;;;;7.35;0.90;;;;;;;;;;5011699;28;20483;-60
2023/07/24 11:47:45;;;;;;;5.15;0.80;;;;;;;;;;5010007;28;20026;-62
2023/07/24 11:50:12;;;;;;;11.23;1.20;;;;;;;;;;5011382;28;20061;-61
2023/07/24 11:52:43;;;;;;;5.65;1.17;;;;;;;;;;5023720;28;20743;-62
2023/07/24 11:55:12;;;;;;;5.55;0.90;;;;;;;;;;5010068;28;20038;-62
2023/07/24 11:57:39;;;;;;;3.83;0.82;;;;;;;;;;5009878;28;20022;-64
2023/07/24 12:00:08;;;;;;;5.07;0.98;;;;;;;;;;5010991;28;20076;-63
2023/07/24 12:02:35;;;;;;;5.75;1.08;;;;;;;;;;5010892;28;20060;-62
2023/07/24 12:05:02;;;;;;;8.75;1.20;;;;;;;;;;5005063;28;20030;-62
2023/07/24 12:07:31;;;;;;;8.80;1.58;;;;;;;;;;5009161;28;20034;-62
2023/07/24 12:09:58;;;;;;;3.55;1.10;;;;;;;;;;5010882;28;20026;-61
2023/07/24 12:12:25;;;;;;;2.80;0.90;;;;;;;;;;5011298;28;20034;-62
2023/07/24 12:14:52;;;;;;;3.95;1.02;;;;;;;;;;5011146;28;20062;-61
2023/07/24 12:17:20;;;;;;;7.40;1.08;;;;;;;;;;5006876;28;20480;-62
2023/07/24 12:19:47;;;;;;;8.95;1.42;;;;;;;;;;5008380;28;20037;-63
2023/07/24 12:22:14;;;;;;;12.98;1.58;;;;;;;;;;5010547;28;20112;-63
2023/07/24 12:24:41;;;;;;;8.95;1.40;;;;;;;;;;5010660;28;20029;-60
2023/07/24 12:27:08;;;;;;;9.93;1.17;;;;;;;;;;5009169;28;20034;-60
2023/07/24 12:29:35;;;;;;;8.15;1.30;;;;;;;;;;5006026;28;20465;-61
2023/07/24 12:32:02;;;;;;;4.93;1.17;;;;;;;;;;5011063;28;20034;-61
2023/07/24 12:34:29;;;;;;;10.02;1.00;;;;;;;;;;5011180;28;20028;-61
2023/07/24 12:36:56;;;;;;;6.45;1.10;;;;;;;;;;5011522;28;20065;-61
2023/07/24 12:39:23;;;;;;;4.30;1.00;;;;;;;;;;5008670;28;20076;-62
2023/07/24 12:41:50;;;;;;;6.38;1.10;;;;;;;;;;5010057;28;20438;-62
2023/07/24 12:44:17;;;;;;;5.85;1.20;;;;;;;;;;5011696;28;20022;-61
2023/07/24 12:46:44;;;;;;;11.13;1.27;;;;;;;;;;5011655;28;20026;-61
2023/07/24 12:49:11;;;;;;;7.95;1.30;;;;;;;;;;5011561;28;20124;-61
2023/07/24 12:51:38;;;;;;;3.97;1.10;;;;;;;;;;5007884;28;20083;-62
2023/07/24 12:54:05;;;;;;;8.55;1.30;;;;;;;;;;5010951;28;20018;-61
2023/07/24 12:56:32;;;;;;;5.75;1.10;;;;;;;;;;5011638;28;20026;-61
2023/07/24 12:58:59;;;;;;;3.67;0.95;;;;;;;;;;5011332;28;20045;-61
2023/07/24 13:01:28;;;;;;;5.00;0.90;;;;;;;;;;5004734;28;20053;-61
2023/07/24 13:03:55;;;;;;;7.38;1.25;;;;;;;;;;5004277;28;20742;-61
2023/07/24 13:06:22;;;;;;;6.32;1.10;;;;;;;;;;5011585;28;20365;-61
2023/07/24 13:08:50;;;;;;;5.40;1.23;;;;;;;;;;5011459;28;20033;-61
2023/07/24 13:11:17;;;;;;;5.57;1.10;;;;;;;;;;5011536;28;20029;-61
2023/07/24 13:13:44;;;;;;;5.72;1.05;;;;;;;;;;5009893;28;20026;-61
2023/07/24 13:16:11;;;;;;;5.78;1.20;;;;;;;;;;5008516;28;20026;-61
2023/07/24 13:18:38;;;;;;;6.15;0.98;;;;;;;;;;5011086;28;20115;-61
2023/07/24 13:21:07;;;;;;;3.78;1.13;;;;;;;;;;5011395;28;20037;-61
2023/07/24 13:23:34;;;;;;;4.07;1.20;;;;;;;;;;5011534;28;20080;-61
2023/07/24 13:26:01;;;;;;;4.72;1.20;;;;;;;;;;5011377;28;20352;-61
2023/07/24 13:28:28;;;;;;;5.90;1.10;;;;;;;;;;5012380;28;20134;-61
2023/07/24 13:30:56;;;;;;;7.13;1.10;;;;;;;;;;5014745;28;20365;-61
2023/07/24 13:33:23;;;;;;;4.68;0.95;;;;;;;;;;5014792;28;20041;-61
2023/07/24 13:35:50;;;;;;;4.30;1.02;;;;;;;;;;5014698;28;20050;-61
2023/07/24 13:38:17;;;;;;;6.20;1.20;;;;;;;;;;5014609;28;20065;-61
2023/07/24 13:40:44;;;;;;;3.78;1.10;;;;;;;;;;5014647;28;20071;-61
2023/07/24 13:43:11;;;;;;;4.28;1.10;;;;;;;;;;5014628;28;20025;-61
2023/07/24 13:45:38;;;;;;;5.22;1.00;;;;;;;;;;5014568;28;20415;-61
2023/07/24 13:48:05;;;;;;;4.22;1.08;;;;;;;;;;5014294;28;20040;-61
2023/07/24 13:50:33;;;;;;;8.10;0.90;;;;;;;;;;5014464;28;20022;-61
2023/07/24 13:53:00;;;;;;;2.75;1.00;;;;;;;;;;5014411;28;20080;-61
2023/07/24 13:55:27;;;;;;;6.70;1.08;;;;;;;;;;5014379;28;20022;-61
2023/07/24 13:57:54;;;;;;;4.43;1.00;;;;;;;;;;5014272;28;20062;-61
2023/07/24 14:00:21;;;;;;;5.20;1.00;;;;;;;;;;5013980;28;20125;-61
2023/07/24 14:02:48;;;;;;;3.33;1.10;;;;;;;;;;5014250;28;20091;-61
2023/07/24 14:05:15;;;;;;;4.18;1.33;;;;;;;;;;5014230;28;20041;-61
2023/07/24 14:07:42;;;;;;;8.52;0.90;;;;;;;;;;5014157;28;20034;-61
2023/07/24 14:10:09;;;;;;;3.05;0.95;;;;;;;;;;5014045;28;20396;-61
2023/07/24 14:12:36;;;;;;;4.45;0.90;;;;;;;;;;5014092;28;20033;-61
2023/07/24 14:15:04;;;;;;;5.75;1.08;;;;;;;;;;5014006;28;20042;-61
2023/07/24 14:17:31;;;;;;;4.65;1.00;;;;;;;;;;5014017;28;20030;-61
2023/07/24 14:19:58;;;;;;;4.78;1.10;;;;;;;;;;5013845;28;20053;-61
2023/07/24 14:22:25;;;;;;;5.38;0.80;;;;;;;;;;5013904;28;20022;-61
2023/07/24 14:24:52;;;;;;;2.88;1.00;;;;;;;;;;5013878;28;20029;-61
2023/07/24 14:27:19;;;;;;;2.55;0.77;;;;;;;;;;5013648;28;20464;-61
2023/07/24 14:29:46;;;;;;;2.35;0.70;;;;;;;;;;5013644;28;20045;-61
2023/07/24 14:32:15;;;;;;;2.60;0.70;;;;;;;;;;5013693;28;20042;-61
2023/07/24 14:34:42;;;;;;;4.63;0.90;;;;;;;;;;5013662;28;20037;-61
2023/07/24 14:37:09;;;;;;;2.72;0.75;;;;;;;;;;5013628;28;20041;-61
2023/07/24 14:39:36;;;;;;;4.05;0.90;;;;;;;;;;5012204;28;20038;-61
2023/07/24 14:42:03;;;;;;;5.30;0.90;;;;;;;;;;5013499;28;20483;-61
2023/07/24 14:44:30;;;;;;;2.20;0.80;;;;;;;;;;5013440;28;20548;-61